Time;durP1;ratioP1;P1;durP2;ratioP2;P2;SDS_P1;SDS_P2;PMS_P1;PMS_P2;Temp;Humidity;BMP_temperature;BMP_pressure;BME280_temperature;BME280_humidity;BME280_pressure;Samples;Min_cycle;Max_cycle;Signal;HPM_P1;HPM_P2
2022/07/03 00:00:42;;;;;;;6.53;1.10;;;18.20;99.90;;;;;;5053737;28;20048;-76
2022/07/03 00:03:07;;;;;;;3.30;1.25;;;18.20;99.90;;;;;;5070787;28;20490;-76
2022/07/03 00:05:34;;;;;;;3.65;1.20;;;18.20;99.90;;;;;;5059280;28;20054;-77
2022/07/03 00:07:59;;;;;;;3.03;1.48;;;18.10;99.90;;;;;;5052603;28;20125;-75
2022/07/03 00:10:25;;;;;;;1.85;1.02;;;18.10;99.90;;;;;;5065206;28;20036;-75
2022/07/03 00:12:51;;;;;;;2.60;1.33;;;18.10;99.90;;;;;;5087478;28;20055;-75
2022/07/03 00:15:16;;;;;;;4.72;1.30;;;18.70;99.90;;;;;;5068761;28;20598;-75
2022/07/03 00:17:42;;;;;;;3.90;1.50;;;18.00;99.90;;;;;;5071140;28;20040;-74
2022/07/03 00:20:08;;;;;;;4.10;1.00;;;18.00;99.90;;;;;;5054757;28;20105;-74
2022/07/03 00:22:40;;;;;;;2.95;1.02;;;18.00;99.90;;;;;;5085155;28;20077;-74
2022/07/03 00:25:10;;;;;;;3.83;1.35;;;18.00;99.90;;;;;;5085980;28;20048;-74
2022/07/03 00:27:38;;;;;;;2.33;1.40;;;18.00;99.90;;;;;;5086473;28;20538;-74
2022/07/03 00:30:07;;;;;;;2.53;1.40;;;18.00;99.90;;;;;;5068183;28;20071;-74
2022/07/03 00:32:37;;;;;;;2.47;1.23;;;18.00;99.90;;;;;;5071034;28;20575;-74
2022/07/03 00:35:03;;;;;;;3.65;1.52;;;18.00;99.90;;;;;;5068162;28;20443;-75
2022/07/03 00:37:29;;;;;;;6.43;1.92;;;18.00;99.90;;;;;;5068996;28;20511;-75
2022/07/03 00:39:57;;;;;;;3.95;1.73;;;17.90;99.90;;;;;;5068249;28;20559;-73
2022/07/03 00:42:22;;;;;;;5.60;1.70;;;17.90;99.90;;;;;;5049286;28;20102;-73
2022/07/03 00:44:50;;;;;;;2.33;2.00;;;17.80;99.90;;;;;;5084328;28;20519;-76
2022/07/03 00:47:19;;;;;;;3.58;2.03;;;17.80;99.90;;;;;;5055400;28;20116;-74
2022/07/03 00:49:51;;;;;;;4.53;2.20;;;17.80;99.90;;;;;;5084275;28;20483;-75
2022/07/03 00:52:19;;;;;;;4.90;2.38;;;17.80;99.90;;;;;;5055558;28;20091;-75
2022/07/03 00:54:54;;;;;;;3.38;2.10;;;17.70;99.90;;;;;;5061801;28;20036;-75
2022/07/03 00:57:22;;;;;;;2.97;2.17;;;17.70;99.90;;;;;;5085480;28;20439;-75
2022/07/03 00:59:49;;;;;;;8.50;2.70;;;17.70;99.90;;;;;;5049991;28;20537;-74
2022/07/03 01:02:50;;;;;;;5.05;2.22;;;17.60;99.90;;;;;;5085514;28;20050;-74
2022/07/03 01:05:29;;;;;;;2.13;1.92;;;17.60;99.90;;;;;;4988554;28;20044;-75
2022/07/03 01:08:01;;;;;;;4.90;2.53;;;17.60;99.90;;;;;;5063707;28;20059;-74
2022/07/03 01:10:48;;;;;;;3.80;2.30;;;17.60;99.90;;;;;;5104086;28;20051;-74
2022/07/03 01:13:25;;;;;;;5.22;2.13;;;17.50;99.90;;;;;;5072735;28;20058;-73
2022/07/03 01:16:03;;;;;;;3.95;1.80;;;17.50;99.90;;;;;;5071983;28;20036;-74
2022/07/03 01:18:39;;;;;;;6.55;1.83;;;17.50;99.90;;;;;;5086730;28;20444;-75
2022/07/03 01:21:40;;;;;;;3.97;3.30;;;17.40;99.90;;;;;;5055219;28;20118;-75
2022/07/03 01:24:34;;;;;;;5.40;3.08;;;17.30;99.90;;;;;;5056021;28;20456;-75
2022/07/03 01:27:06;;;;;;;4.90;3.47;;;17.30;99.90;;;;;;5070385;28;20110;-75
2022/07/03 01:29:46;;;;;;;5.75;3.78;;;17.20;99.90;;;;;;5069990;28;20077;-75
2022/07/03 01:32:14;;;;;;;5.55;3.67;;;17.40;99.90;;;;;;5087632;28;20059;-75
2022/07/03 01:34:43;;;;;;;6.80;3.50;;;18.10;99.90;;;;;;5088952;28;20055;-75
2022/07/03 01:37:10;;;;;;;3.63;3.33;;;17.20;99.90;;;;;;5089229;28;20387;-75
2022/07/03 01:39:36;;;;;;;4.53;3.88;;;17.20;99.90;;;;;;5072927;28;20491;-73
2022/07/03 01:42:02;;;;;;;6.90;4.28;;;17.60;99.90;;;;;;5065445;28;20040;-74
2022/07/03 01:44:30;;;;;;;5.25;3.67;;;17.10;99.90;;;;;;5063530;28;20028;-74
2022/07/03 01:46:57;;;;;;;7.57;3.90;;;16.90;99.90;;;;;;5084979;28;20105;-74
2022/07/03 01:49:26;;;;;;;4.80;2.88;;;17.00;99.90;;;;;;5088733;28;20032;-75
2022/07/03 01:51:53;;;;;;;4.47;2.30;;;17.00;99.90;;;;;;5070407;28;20458;-74
2022/07/03 01:54:20;;;;;;;5.20;3.30;;;17.00;99.90;;;;;;5088329;28;20060;-74
2022/07/03 01:56:47;;;;;;;6.30;2.95;;;17.00;99.90;;;;;;5087656;28;20059;-75
2022/07/03 01:59:13;;;;;;;3.15;2.25;;;16.90;99.90;;;;;;5088724;28;20125;-75
2022/07/03 02:01:53;;;;;;;4.95;2.45;;;16.80;99.90;;;;;;5088874;28;20149;-75
2022/07/03 02:04:37;;;;;;;2.58;2.25;;;16.70;99.90;;;;;;5070365;28;20075;-75
2022/07/03 02:07:32;;;;;;;3.28;2.65;;;16.60;99.90;;;;;;5068981;28;20103;-76
2022/07/03 02:10:05;;;;;;;8.32;6.45;;;16.50;99.90;;;;;;4998675;28;20061;-74
2022/07/03 02:12:51;;;;;;;4.20;2.70;;;16.40;99.90;;;;;;5068134;28;20380;-75
2022/07/03 02:15:25;;;;;;;5.35;3.10;;;16.30;99.90;;;;;;5087401;28;20543;-74
2022/07/03 02:17:53;;;;;;;5.53;3.60;;;16.20;99.90;;;;;;5083510;28;20332;-75
2022/07/03 02:20:21;;;;;;;6.22;3.20;;;16.30;99.90;;;;;;5053151;28;20094;-76
2022/07/03 02:22:56;;;;;;;3.53;2.53;;;16.30;99.90;;;;;;5053679;28;20044;-75
2022/07/03 02:25:25;;;;;;;4.57;2.80;;;16.30;99.90;;;;;;5071475;28;20091;-75
2022/07/03 02:27:56;;;;;;;4.47;2.85;;;16.20;99.90;;;;;;5086215;28;20074;-74
2022/07/03 02:30:27;;;;;;;3.83;2.20;;;16.70;99.90;;;;;;5051111;28;20066;-75
2022/07/03 02:32:54;;;;;;;6.57;2.38;;;16.20;99.90;;;;;;5088076;28;20040;-75
2022/07/03 02:35:31;;;;;;;5.07;2.63;;;16.20;99.90;;;;;;5068898;28;20040;-75
2022/07/03 02:38:09;;;;;;;2.35;2.10;;;16.10;99.90;;;;;;5088416;28;20370;-75
2022/07/03 02:40:57;;;;;;;5.18;1.92;;;16.10;99.90;;;;;;5065955;28;20079;-74
2022/07/03 02:43:47;;;;;;;4.10;2.15;;;16.00;99.90;;;;;;5087525;28;20406;-75
2022/07/03 02:49:15;;;;;;;3.67;2.25;;;16.00;99.90;;;;;;5082601;28;20052;-74
2022/07/03 02:51:50;;;;;;;4.10;2.25;;;16.00;99.90;;;;;;5086179;28;20044;-75
2022/07/03 02:54:17;;;;;;;2.97;2.45;;;16.50;99.90;;;;;;5053288;28;20088;-73
2022/07/03 02:57:08;;;;;;;3.63;2.55;;;16.50;99.90;;;;;;5086184;28;20050;-75
2022/07/03 02:59:54;;;;;;;2.40;2.10;;;16.00;99.90;;;;;;5082244;28;20071;-76
2022/07/03 03:02:22;;;;;;;2.60;2.17;;;16.00;99.90;;;;;;5068611;28;20040;-75
2022/07/03 03:05:00;;;;;;;3.83;2.50;;;15.90;99.90;;;;;;5087926;28;20040;-76
2022/07/03 03:07:34;;;;;;;4.78;2.47;;;15.90;99.90;;;;;;5056401;28;20513;-76
2022/07/03 03:10:00;;;;;;;3.17;2.30;;;16.00;99.90;;;;;;5050906;28;20044;-74
2022/07/03 03:12:37;;;;;;;3.72;2.13;;;15.90;99.90;;;;;;5068529;28;20050;-75
2022/07/03 03:15:04;;;;;;;3.10;2.80;;;15.90;99.90;;;;;;5088307;28;20052;-74
2022/07/03 03:17:42;;;;;;;6.35;2.90;;;15.80;99.90;;;;;;5069493;28;20079;-76
2022/07/03 03:20:12;;;;;;;4.05;2.42;;;15.80;99.90;;;;;;5056020;28;20508;-75
2022/07/03 03:22:46;;;;;;;3.83;2.50;;;15.80;99.90;;;;;;5085936;28;20479;-76
2022/07/03 03:25:12;;;;;;;3.08;2.53;;;15.80;99.90;;;;;;5067137;28;20128;-76
2022/07/03 03:27:38;;;;;;;5.00;2.78;;;15.80;99.90;;;;;;5067777;28;20127;-76
2022/07/03 03:30:06;;;;;;;3.35;2.78;;;15.70;99.90;;;;;;5053001;28;20118;-75
2022/07/03 03:32:34;;;;;;;2.53;2.30;;;15.70;99.90;;;;;;5048398;28;20454;-76
2022/07/03 03:35:00;;;;;;;6.63;3.33;;;15.70;99.90;;;;;;5074802;28;20052;-76
2022/07/03 03:37:26;;;;;;;3.40;2.45;;;16.20;99.90;;;;;;5068719;28;20479;-75
2022/07/03 03:39:52;;;;;;;7.32;3.45;;;15.90;99.90;;;;;;5050343;28;20039;-75
2022/07/03 03:42:17;;;;;;;5.53;3.15;;;16.40;99.90;;;;;;5064199;28;20078;-75
2022/07/03 03:44:43;;;;;;;3.97;3.00;;;15.70;99.90;;;;;;5049196;28;20039;-74
2022/07/03 03:47:09;;;;;;;3.35;2.85;;;15.70;99.90;;;;;;5067210;28;20047;-75
2022/07/03 03:49:35;;;;;;;5.68;3.00;;;15.70;99.90;;;;;;5086663;28;20105;-75
2022/07/03 03:52:01;;;;;;;4.85;2.80;;;15.70;99.90;;;;;;5051518;28;20051;-74
2022/07/03 03:54:27;;;;;;;5.50;2.60;;;15.60;99.90;;;;;;5050283;28;20055;-74
2022/07/03 03:56:53;;;;;;;4.72;2.88;;;15.60;99.90;;;;;;5068555;28;20040;-75
2022/07/03 03:59:18;;;;;;;3.53;2.88;;;15.60;99.90;;;;;;5070091;28;20032;-74
2022/07/03 04:01:45;;;;;;;2.70;2.60;;;15.60;99.90;;;;;;5068384;28;20055;-74
2022/07/03 04:04:17;;;;;;;3.85;2.60;;;16.50;99.90;;;;;;5046399;28;20123;-75
2022/07/03 04:06:43;;;;;;;5.22;2.50;;;15.70;99.90;;;;;;5064084;28;20062;-75
2022/07/03 04:09:09;;;;;;;3.30;2.78;;;15.60;99.90;;;;;;5049385;28;20059;-75
2022/07/03 04:11:34;;;;;;;5.25;3.85;;;16.80;99.90;;;;;;5068179;28;20036;-74
2022/07/03 04:14:00;;;;;;;5.30;3.50;;;16.30;99.90;;;;;;5046483;28;20563;-75
2022/07/03 04:16:26;;;;;;;6.05;3.03;;;16.80;99.90;;;;;;5069311;28;20471;-75
2022/07/03 04:18:51;;;;;;;7.38;3.67;;;15.60;99.90;;;;;;5068464;28;20036;-74
2022/07/03 04:21:17;;;;;;;3.70;2.85;;;15.50;99.90;;;;;;5065418;28;20051;-75
2022/07/03 04:23:42;;;;;;;5.57;3.33;;;16.00;99.90;;;;;;5065735;28;20031;-75
2022/07/03 04:26:08;;;;;;;5.28;3.63;;;15.60;99.90;;;;;;5067411;28;20059;-75
2022/07/03 04:28:34;;;;;;;6.85;3.00;;;16.40;99.90;;;;;;5084747;28;20122;-75
2022/07/03 04:31:00;;;;;;;5.57;3.63;;;15.60;99.90;;;;;;5085723;28;20047;-75
2022/07/03 04:33:25;;;;;;;4.72;2.83;;;15.60;99.90;;;;;;5087521;28;20462;-76
2022/07/03 04:35:51;;;;;;;4.28;3.35;;;15.60;99.90;;;;;;5092507;28;20490;-76
2022/07/03 04:38:16;;;;;;;6.57;3.33;;;15.70;99.90;;;;;;5086203;28;20044;-74
2022/07/03 04:40:42;;;;;;;4.65;3.40;;;16.50;99.90;;;;;;5061290;28;20410;-75
2022/07/03 04:43:10;;;;;;;4.53;3.50;;;15.80;99.90;;;;;;5088920;28;20043;-75
2022/07/03 04:45:36;;;;;;;3.63;3.15;;;16.30;99.90;;;;;;5064674;28;20034;-75
2022/07/03 04:48:01;;;;;;;10.45;5.90;;;15.80;99.90;;;;;;5068601;28;20044;-76
2022/07/03 04:50:27;;;;;;;5.28;4.20;;;15.80;99.90;;;;;;5070239;28;20039;-76
2022/07/03 04:53:01;;;;;;;7.65;3.63;;;15.90;99.90;;;;;;5055667;28;20138;-74
2022/07/03 04:55:27;;;;;;;3.55;3.25;;;15.90;99.90;;;;;;5090778;28;20036;-75
2022/07/03 04:57:53;;;;;;;3.53;2.78;;;15.90;99.90;;;;;;5063498;28;20056;-74
2022/07/03 05:00:18;;;;;;;4.45;3.33;;;16.00;99.90;;;;;;5072586;28;20044;-75
2022/07/03 05:02:44;;;;;;;3.75;3.33;;;17.10;99.90;;;;;;5050046;28;20044;-74
2022/07/03 05:05:10;;;;;;;6.40;3.03;;;16.10;99.90;;;;;;5067788;28;20076;-74
2022/07/03 05:07:35;;;;;;;6.93;3.10;;;16.20;99.90;;;;;;5082844;28;20040;-73
2022/07/03 05:10:01;;;;;;;3.72;3.00;;;16.20;99.90;;;;;;5081698;28;20070;-75
2022/07/03 05:12:26;;;;;;;5.38;2.70;;;16.30;99.90;;;;;;5067397;28;20127;-74
2022/07/03 05:14:52;;;;;;;6.72;2.05;;;16.40;99.90;;;;;;5089403;28;20094;-75
2022/07/03 05:17:18;;;;;;;5.25;2.53;;;16.50;99.90;;;;;;5050615;28;20044;-74
2022/07/03 05:20:23;;;;;;;3.35;2.20;;;16.60;99.90;;;;;;5086101;28;20036;-74
2022/07/03 05:22:33;;;;;;;7.68;2.33;;;16.70;99.90;;;;;;5074382;28;20163;-75
2022/07/03 05:24:59;;;;;;;7.13;2.60;;;16.80;99.90;;;;;;5086551;28;20115;-77
2022/07/03 05:27:25;;;;;;;1.90;1.75;;;16.90;99.90;;;;;;5053970;28;20051;-79
2022/07/03 05:29:51;;;;;;;3.38;2.00;;;17.10;99.90;;;;;;4332461;28;10000998;-78
2022/07/03 05:32:17;;;;;;;4.75;2.35;;;17.00;99.90;;;;;;5069924;28;20101;-78
2022/07/03 05:34:42;;;;;;;3.40;2.25;;;17.10;99.90;;;;;;5070375;28;20060;-77
2022/07/03 05:37:08;;;;;;;3.80;2.60;;;17.20;99.90;;;;;;5070675;28;20301;-78
2022/07/03 05:39:34;;;;;;;5.22;2.00;;;17.20;99.90;;;;;;5068347;28;20062;-78
2022/07/03 05:42:00;;;;;;;2.83;1.83;;;17.30;99.90;;;;;;5069993;28;20032;-79
2022/07/03 05:44:26;;;;;;;2.75;1.60;;;17.30;99.90;;;;;;5085824;28;20495;-80
2022/07/03 05:46:52;;;;;;;7.43;2.03;;;17.30;99.90;;;;;;5087685;28;20040;-78
2022/07/03 05:49:17;;;;;;;5.75;2.33;;;17.40;99.90;;;;;;5070444;28;20051;-77
2022/07/03 05:51:43;;;;;;;4.50;2.15;;;18.20;99.90;;;;;;5084740;28;20051;-76
2022/07/03 05:54:09;;;;;;;3.75;1.70;;;17.40;99.90;;;;;;5069328;28;20040;-77
2022/07/03 05:56:37;;;;;;;5.05;2.28;;;17.50;99.90;;;;;;5089019;28;20039;-78
2022/07/03 05:59:03;;;;;;;5.50;2.30;;;17.50;99.90;;;;;;5071018;28;20125;-77
2022/07/03 06:01:29;;;;;;;4.53;1.55;;;18.40;99.90;;;;;;5088948;28;20474;-77
2022/07/03 06:03:54;;;;;;;1.40;1.10;;;17.60;99.90;;;;;;5087493;28;20372;-79
2022/07/03 06:06:20;;;;;;;1.58;1.30;;;17.70;99.90;;;;;;5053309;28;20571;-78
2022/07/03 06:08:46;;;;;;;1.95;1.13;;;17.70;99.90;;;;;;5065544;28;20044;-78
2022/07/03 06:11:11;;;;;;;6.57;1.00;;;17.80;99.90;;;;;;5051954;28;20112;-78
2022/07/03 06:13:37;;;;;;;3.33;0.90;;;17.80;99.90;;;;;;5071474;28;20040;-76
2022/07/03 06:16:03;;;;;;;2.63;0.82;;;18.60;99.90;;;;;;5067496;28;20441;-77
2022/07/03 06:18:28;;;;;;;4.68;2.00;;;17.90;99.90;;;;;;5087354;28;20060;-77
2022/07/03 06:20:57;;;;;;;3.28;1.20;;;18.00;99.90;;;;;;5051006;28;20036;-76
2022/07/03 06:23:23;;;;;;;2.75;1.10;;;18.00;99.90;;;;;;5086671;28;20383;-76
2022/07/03 06:25:48;;;;;;;5.93;3.38;;;18.10;99.90;;;;;;5055616;28;20065;-78
2022/07/03 06:28:14;;;;;;;1.65;1.20;;;18.10;99.90;;;;;;5080318;28;20053;-79
2022/07/03 06:30:40;;;;;;;2.35;0.80;;;18.20;99.90;;;;;;5084952;28;20055;-77
2022/07/03 06:33:05;;;;;;;1.85;0.90;;;18.30;99.90;;;;;;5066131;28;20472;-76
2022/07/03 06:35:31;;;;;;;1.15;0.95;;;18.30;99.90;;;;;;5070230;28;20047;-78
2022/07/03 06:38:02;;;;;;;3.08;0.85;;;18.30;99.90;;;;;;5069487;28;20119;-77
2022/07/03 06:40:29;;;;;;;3.72;0.88;;;18.30;99.90;;;;;;5087681;28;20047;-78
2022/07/03 06:42:54;;;;;;;1.42;0.80;;;18.40;99.90;;;;;;5064077;28;20142;-77
2022/07/03 06:45:20;;;;;;;3.00;0.80;;;18.40;99.90;;;;;;5065634;28;20165;-80
2022/07/03 06:47:48;;;;;;;2.92;0.98;;;18.40;99.90;;;;;;5065569;28;20036;-79
2022/07/03 06:50:14;;;;;;;5.90;1.30;;;18.40;99.90;;;;;;5072675;28;20059;-78
2022/07/03 06:52:39;;;;;;;4.50;1.77;;;18.40;99.90;;;;;;5072355;28;20492;-79
2022/07/03 06:55:06;;;;;;;2.83;0.90;;;19.00;99.90;;;;;;5071242;28;20090;-80
2022/07/03 06:57:31;;;;;;;4.65;1.42;;;18.40;99.90;;;;;;5052929;28;20048;-77
2022/07/03 06:59:57;;;;;;;4.05;1.25;;;18.40;99.90;;;;;;5068629;28;20043;-78
2022/07/03 07:02:23;;;;;;;3.30;1.17;;;18.50;99.90;;;;;;5087464;28;20547;-78
2022/07/03 07:04:49;;;;;;;2.10;0.77;;;19.10;99.90;;;;;;5085162;28;20044;-77
2022/07/03 07:07:14;;;;;;;1.80;1.58;;;18.60;99.90;;;;;;5069752;28;20036;-77
2022/07/03 07:09:40;;;;;;;4.38;1.17;;;19.50;99.90;;;;;;5052287;28;20043;-78
2022/07/03 07:12:06;;;;;;;5.10;1.00;;;18.60;99.90;;;;;;5074925;28;20036;-80
2022/07/03 07:14:32;;;;;;;2.28;0.90;;;18.50;99.90;;;;;;5066578;28;20031;-78
2022/07/03 07:16:58;;;;;;;4.15;1.13;;;18.70;99.90;;;;;;5066330;28;20089;-79
2022/07/03 07:19:23;;;;;;;3.28;1.20;;;18.50;99.90;;;;;;5052767;28;20043;-78
2022/07/03 07:21:49;;;;;;;4.38;0.93;;;18.50;99.90;;;;;;5058521;28;20047;-78
2022/07/03 07:24:14;;;;;;;2.50;0.82;;;18.40;99.90;;;;;;5073996;28;20054;-78
2022/07/03 07:26:40;;;;;;;2.08;1.27;;;18.70;99.90;;;;;;5088482;28;20052;-77
2022/07/03 07:29:07;;;;;;;4.00;0.95;;;19.30;99.90;;;;;;5085614;28;20370;-78
2022/07/03 07:31:32;;;;;;;2.67;1.00;;;18.60;99.90;;;;;;5051951;28;20546;-76
2022/07/03 07:34:06;;;;;;;4.50;1.20;;;18.50;99.90;;;;;;5068447;28;20131;-77
2022/07/03 07:36:35;;;;;;;2.75;1.50;;;18.60;99.90;;;;;;5081492;28;20051;-73
2022/07/03 07:39:00;;;;;;;5.25;1.25;;;18.80;99.90;;;;;;5051186;28;20044;-72
2022/07/03 07:41:26;;;;;;;5.07;1.10;;;18.80;99.90;;;;;;5085164;28;20511;-73
2022/07/03 07:43:53;;;;;;;5.95;0.90;;;18.70;99.90;;;;;;5084747;28;20039;-74
2022/07/03 07:46:19;;;;;;;4.15;0.93;;;18.80;99.90;;;;;;5067555;28;20493;-72
2022/07/03 07:48:45;;;;;;;4.30;0.70;;;18.80;99.90;;;;;;5065059;28;20040;-73
2022/07/03 07:51:11;;;;;;;3.88;0.60;;;18.90;99.90;;;;;;5085779;28;20036;-73
2022/07/03 07:53:37;;;;;;;1.92;0.65;;;19.00;99.90;;;;;;5066360;28;20454;-74
2022/07/03 07:56:03;;;;;;;1.85;0.40;;;19.00;99.90;;;;;;5062086;28;20048;-73
2022/07/03 07:58:29;;;;;;;2.25;0.70;;;19.10;99.90;;;;;;5087610;28;20051;-73
2022/07/03 08:06:24;;;;;;;5.53;0.43;;;19.30;99.90;;;;;;5065439;28;19924;-76
2022/07/03 08:08:49;;;;;;;5.65;0.82;;;19.40;99.90;;;;;;5085792;28;20118;-74
2022/07/03 08:11:15;;;;;;;25.60;2.10;;;19.40;99.90;;;;;;5046721;28;20101;-73
2022/07/03 08:13:40;;;;;;;2.17;0.22;;;19.40;99.90;;;;;;5069326;28;20035;-73
2022/07/03 08:16:06;;;;;;;2.17;0.98;;;19.40;99.90;;;;;;5075207;28;20047;-73
2022/07/03 08:18:32;;;;;;;4.25;0.80;;;19.40;99.90;;;;;;5088354;28;20044;-72
2022/07/03 08:20:58;;;;;;;6.88;1.25;;;19.40;99.90;;;;;;5079163;28;20142;-72
2022/07/03 08:23:23;;;;;;;9.05;0.93;;;19.40;99.90;;;;;;5081110;28;20040;-73
2022/07/03 08:25:49;;;;;;;5.50;0.65;;;19.50;99.90;;;;;;5086030;28;20048;-73
2022/07/03 08:28:15;;;;;;;3.35;0.95;;;19.50;99.90;;;;;;5084172;28;20052;-73
2022/07/03 08:30:40;;;;;;;40.58;3.42;;;19.50;99.90;;;;;;5060546;28;20071;-74
2022/07/03 08:33:06;;;;;;;1.13;0.70;;;19.60;99.90;;;;;;5090110;28;20035;-73
2022/07/03 08:35:32;;;;;;;2.05;0.35;;;19.70;99.90;;;;;;5068807;28;20036;-73
2022/07/03 08:37:58;;;;;;;2.15;0.40;;;19.70;99.90;;;;;;5084098;28;20160;-72
2022/07/03 08:40:24;;;;;;;10.40;0.85;;;20.10;99.90;;;;;;5082113;28;20058;-72
2022/07/03 08:43:03;;;;;;;11.48;0.50;;;19.90;99.90;;;;;;5084018;28;20523;-74
2022/07/03 08:45:30;;;;;;;4.97;0.35;;;19.90;99.90;;;;;;5088768;28;20047;-73
2022/07/03 08:47:58;;;;;;;0.85;0.20;;;20.00;99.90;;;;;;5062644;28;20719;-74
2022/07/03 08:50:24;;;;;;;2.88;0.50;;;20.00;99.90;;;;;;5067170;28;20048;-74
2022/07/03 08:52:51;;;;;;;0.85;0.40;;;20.00;99.90;;;;;;5082609;28;20833;-74
2022/07/03 08:55:18;;;;;;;1.15;0.30;;;20.10;99.90;;;;;;5065915;28;20032;-74
2022/07/03 08:57:46;;;;;;;0.80;0.40;;;20.20;99.90;;;;;;5087618;28;20384;-75
2022/07/03 09:00:15;;;;;;;1.38;0.43;;;20.50;99.90;;;;;;5078368;28;20618;-75
2022/07/03 09:02:44;;;;;;;1.23;0.20;;;20.30;99.90;;;;;;5084073;28;20040;-74
2022/07/03 09:05:14;;;;;;;1.60;0.30;;;20.50;99.90;;;;;;5084601;28;20047;-75
2022/07/03 09:07:41;;;;;;;2.88;0.60;;;20.40;99.90;;;;;;5084386;28;20048;-76
2022/07/03 09:10:13;;;;;;;0.68;0.17;;;20.40;99.90;;;;;;5050414;28;20531;-74
2022/07/03 09:12:38;;;;;;;0.95;0.32;;;20.50;99.90;;;;;;5065412;28;20422;-75
2022/07/03 09:15:06;;;;;;;12.90;1.60;;;20.50;99.90;;;;;;5067970;28;20052;-75
2022/07/03 09:17:32;;;;;;;4.40;0.43;;;20.50;99.90;;;;;;5069540;28;20052;-76
2022/07/03 09:20:00;;;;;;;1.83;0.40;;;20.60;99.90;;;;;;5067871;28;20040;-74
2022/07/03 09:22:27;;;;;;;1.55;0.40;;;21.40;99.90;;;;;;5083560;28;20086;-75
2022/07/03 09:25:02;;;;;;;3.70;0.40;;;20.70;99.90;;;;;;5081870;28;20056;-72
2022/07/03 09:27:28;;;;;;;2.45;0.47;;;20.70;99.90;;;;;;5089046;28;20403;-72
2022/07/03 09:30:09;;;;;;;1.95;0.40;;;20.80;99.90;;;;;;5066381;28;20048;-74
2022/07/03 09:32:38;;;;;;;1.15;0.40;;;20.80;99.90;;;;;;5084958;28;20103;-73
2022/07/03 09:35:19;;;;;;;5.55;0.82;;;20.80;99.90;;;;;;5086690;28;20068;-73
2022/07/03 09:38:02;;;;;;;1.65;0.82;;;20.90;99.90;;;;;;5083620;28;20042;-71
2022/07/03 09:40:51;;;;;;;4.23;0.30;;;21.10;99.90;;;;;;5085885;28;20044;-72
2022/07/03 09:43:31;;;;;;;2.58;0.35;;;21.10;99.90;;;;;;5093773;28;20554;-76
2022/07/03 09:46:01;;;;;;;2.63;0.70;;;21.20;99.90;;;;;;5086357;28;20051;-75
2022/07/03 09:48:28;;;;;;;3.33;0.30;;;21.20;99.90;;;;;;5074316;28;20075;-72
2022/07/03 09:51:17;;;;;;;1.48;0.30;;;21.20;99.90;;;;;;5074577;28;20130;-71
2022/07/03 09:53:48;;;;;;;3.05;0.60;;;21.20;99.90;;;;;;5080429;28;20081;-71
2022/07/03 09:56:16;;;;;;;1.65;1.10;;;21.40;99.90;;;;;;5087173;28;20137;-71
2022/07/03 09:58:58;;;;;;;9.93;0.55;;;21.40;99.90;;;;;;5086773;28;20411;-77
2022/07/03 10:01:24;;;;;;;3.65;0.30;;;21.60;99.90;;;;;;5082119;28;20077;-78
2022/07/03 10:03:50;;;;;;;1.55;0.32;;;21.50;99.90;;;;;;5084705;28;20048;-78
2022/07/03 10:06:15;;;;;;;0.52;0.28;;;21.60;99.90;;;;;;5068231;28;20044;-78
2022/07/03 10:08:42;;;;;;;1.75;0.40;;;21.50;99.90;;;;;;5067183;28;20067;-76
2022/07/03 10:11:09;;;;;;;2.75;0.32;;;21.50;99.90;;;;;;5084552;28;20137;-72
2022/07/03 10:13:39;;;;;;;1.08;0.40;;;22.40;99.90;;;;;;5071915;28;20518;-71
2022/07/03 10:16:06;;;;;;;3.67;0.40;;;21.60;99.90;;;;;;5082122;28;20055;-74
2022/07/03 10:18:35;;;;;;;1.10;0.20;;;21.60;99.90;;;;;;5078389;28;20044;-74
2022/07/03 10:21:04;;;;;;;1.58;0.40;;;21.90;99.90;;;;;;5086032;28;20551;-74
2022/07/03 10:23:31;;;;;;;2.35;0.50;;;21.80;99.90;;;;;;5069994;28;20044;-77
2022/07/03 10:25:58;;;;;;;6.00;0.70;;;21.90;99.90;;;;;;5066856;28;20080;-76
2022/07/03 10:28:24;;;;;;;2.17;0.30;;;21.80;99.90;;;;;;5075842;28;20055;-77
2022/07/03 10:30:50;;;;;;;2.15;0.20;;;21.70;99.90;;;;;;5065663;28;20379;-76
2022/07/03 10:33:16;;;;;;;1.38;0.60;;;21.60;99.90;;;;;;5088949;28;20131;-77
2022/07/03 10:35:53;;;;;;;1.70;0.20;;;21.60;99.90;;;;;;5087706;28;20044;-77
2022/07/03 10:38:21;;;;;;;1.58;0.52;;;21.50;99.90;;;;;;5088213;28;20094;-77
2022/07/03 10:46:33;;;;;;;2.33;0.43;;;21.50;99.90;;;;;;5087276;28;20060;-75
2022/07/03 10:49:01;;;;;;;1.42;0.25;;;21.40;99.90;;;;;;5087774;28;20135;-74
2022/07/03 10:51:30;;;;;;;4.00;0.60;;;21.40;99.90;;;;;;5081101;28;20501;-76
2022/07/03 10:54:18;;;;;;;7.68;0.98;;;21.60;99.90;;;;;;5105708;27;20052;-76
2022/07/03 10:57:17;;;;;;;2.13;0.60;;;21.60;99.90;;;;;;5089437;28;20032;-76
2022/07/03 10:59:46;;;;;;;3.85;0.45;;;21.60;99.90;;;;;;5035254;28;20538;-77
2022/07/03 11:02:32;;;;;;;5.20;0.60;;;21.60;99.90;;;;;;5075189;28;20044;-77
2022/07/03 11:05:01;;;;;;;1.92;0.47;;;21.60;99.90;;;;;;5071255;28;20127;-75
2022/07/03 11:07:44;;;;;;;3.25;0.50;;;21.60;99.90;;;;;;5086551;28;20131;-75
2022/07/03 11:10:13;;;;;;;3.45;0.77;;;21.80;99.90;;;;;;5052181;28;20514;-75
2022/07/03 11:13:12;;;;;;;2.10;0.50;;;22.00;99.90;;;;;;5045856;28;20652;-73
2022/07/03 11:15:51;;;;;;;4.60;0.60;;;22.10;99.90;;;;;;5074996;28;20051;-75
2022/07/03 11:18:35;;;;;;;2.88;0.70;;;22.20;99.90;;;;;;5089936;28;20071;-74
2022/07/03 11:21:10;;;;;;;5.80;0.88;;;22.30;99.90;;;;;;5069564;28;20135;-74
2022/07/03 11:24:00;;;;;;;3.47;0.50;;;22.40;99.90;;;;;;5069192;28;20039;-71
2022/07/03 11:26:25;;;;;;;3.85;0.50;;;22.40;99.90;;;;;;5070470;28;20058;-81
2022/07/03 11:28:55;;;;;;;3.42;0.60;;;22.30;99.90;;;;;;5073026;28;20047;-83
2022/07/03 11:31:23;;;;;;;4.10;0.70;;;22.20;99.90;;;;;;5071308;28;20076;-75
2022/07/03 11:33:53;;;;;;;4.60;0.80;;;22.00;99.90;;;;;;5075271;28;20407;-74
2022/07/03 11:36:32;;;;;;;3.10;0.45;;;22.00;99.90;;;;;;5087788;28;20086;-74
2022/07/03 11:38:57;;;;;;;4.60;0.75;;;22.00;99.90;;;;;;5075282;28;20048;-73
2022/07/03 11:41:24;;;;;;;4.47;0.60;;;21.90;99.90;;;;;;5083500;28;20493;-75
2022/07/03 11:43:57;;;;;;;4.25;0.70;;;21.90;99.90;;;;;;5074497;28;20044;-74
2022/07/03 11:46:27;;;;;;;2.67;0.85;;;22.00;99.90;;;;;;5052436;28;20987;-74
2022/07/03 11:49:06;;;;;;;3.22;0.70;;;21.80;99.90;;;;;;5068738;28;20456;-73
2022/07/03 11:51:33;;;;;;;5.60;0.70;;;21.70;99.90;;;;;;5087253;28;20115;-74
2022/07/03 11:53:59;;;;;;;2.05;0.93;;;21.80;99.90;;;;;;5066677;28;20495;-73
2022/07/03 11:56:25;;;;;;;10.73;1.05;;;21.80;99.90;;;;;;5068183;28;20044;-73
2022/07/03 11:58:56;;;;;;;4.32;0.90;;;21.90;99.90;;;;;;5074907;28;20063;-74
2022/07/03 12:01:25;;;;;;;3.13;0.60;;;22.00;99.90;;;;;;5088509;28;20040;-74
2022/07/03 12:04:01;;;;;;;4.68;0.93;;;22.10;99.90;;;;;;5066745;28;20048;-74
2022/07/03 12:06:43;;;;;;;5.85;1.23;;;22.10;99.90;;;;;;5066852;28;20066;-74
2022/07/03 12:09:36;;;;;;;6.50;1.00;;;22.40;99.90;;;;;;5086740;28;20070;-74
2022/07/03 12:12:07;;;;;;;8.10;0.90;;;22.50;99.90;;;;;;5062359;28;20112;-79
2022/07/03 12:14:46;;;;;;;5.10;0.65;;;22.50;99.90;;;;;;5072834;28;20149;-76
2022/07/03 12:17:20;;;;;;;2.33;0.60;;;22.30;99.90;;;;;;5068195;28;20068;-74
2022/07/03 12:19:49;;;;;;;;;;;22.20;99.90;;;;;;5068190;28;20072;-76
2022/07/03 12:22:26;;;;;;;3.22;0.95;;;22.10;99.90;;;;;;5084426;28;20363;-75
2022/07/03 12:24:57;;;;;;;2.45;1.00;;;22.00;99.90;;;;;;5051287;28;20083;-75
2022/07/03 12:27:24;;;;;;;4.30;0.75;;;21.80;99.90;;;;;;5086663;28;20048;-75
2022/07/03 12:29:51;;;;;;;4.10;0.90;;;21.70;99.90;;;;;;5046488;28;20464;-75
2022/07/03 12:32:17;;;;;;;5.20;0.63;;;21.60;99.90;;;;;;5088398;28;20067;-75
2022/07/03 12:34:43;;;;;;;4.18;1.35;;;21.50;99.90;;;;;;5090536;28;20082;-76
2022/07/03 12:37:09;;;;;;;5.05;0.93;;;21.40;99.90;;;;;;5056168;28;20059;-75
2022/07/03 12:39:46;;;;;;;7.90;0.93;;;21.70;99.90;;;;;;5068377;28;20475;-75
2022/07/03 12:42:16;;;;;;;2.97;0.52;;;21.90;99.90;;;;;;5069257;28;20044;-75
2022/07/03 12:44:42;;;;;;;4.38;1.13;;;22.20;99.90;;;;;;5050953;28;20036;-74
2022/07/03 12:47:16;;;;;;;6.03;0.95;;;22.40;99.90;;;;;;5068031;28;20036;-74
2022/07/03 12:49:41;;;;;;;6.60;1.15;;;22.60;99.90;;;;;;5060808;28;20543;-74
2022/07/03 12:52:07;;;;;;;2.00;0.22;;;22.90;99.90;;;;;;5050198;28;20036;-74
2022/07/03 12:54:35;;;;;;;2.65;0.40;;;23.10;99.90;;;;;;5050280;28;20102;-74
2022/07/03 13:00:10;;;;;;;4.13;0.70;;;23.10;99.90;;;;;;5089961;28;20044;-79
2022/07/03 13:02:38;;;;;;;3.85;0.50;;;22.90;99.90;;;;;;5086629;28;20036;-76
2022/07/03 13:05:24;;;;;;;1.63;0.70;;;22.80;99.90;;;;;;5055333;28;20131;-77
2022/07/03 13:07:52;;;;;;;3.65;0.40;;;22.60;99.90;;;;;;5064692;28;21295;-76
2022/07/03 13:10:20;;;;;;;3.20;0.60;;;22.40;99.90;;;;;;5073388;28;20413;-75
2022/07/03 13:12:57;;;;;;;3.40;0.73;;;22.30;99.90;;;;;;5072334;28;20051;-78
2022/07/03 13:15:27;;;;;;;2.90;1.05;;;22.10;99.90;;;;;;5070007;28;20036;-79
2022/07/03 13:17:57;;;;;;;2.60;0.50;;;22.00;99.90;;;;;;5065080;28;20039;-78